sensor_id;sensor_type;location;lat;lon;timestamp;temperature;humidity
70246;SHT30;57637;49.272;8.590;2023-03-26T00:01:00;8.67;84.03
70246;SHT30;57637;49.272;8.590;2023-03-26T00:03:30;8.65;83.97
70246;SHT30;57637;49.272;8.590;2023-03-26T00:06:04;8.60;84.00
70246;SHT30;57637;49.272;8.590;2023-03-26T00:08:32;8.52;84.12
70246;SHT30;57637;49.272;8.590;2023-03-26T00:10:58;8.44;84.19
70246;SHT30;57637;49.272;8.590;2023-03-26T00:13:24;8.36;84.34
70246;SHT30;57637;49.272;8.590;2023-03-26T00:15:50;8.28;84.62
70246;SHT30;57637;49.272;8.590;2023-03-26T00:18:16;8.20;84.86
70246;SHT30;57637;49.272;8.590;2023-03-26T00:20:44;8.09;84.91
70246;SHT30;57637;49.272;8.590;2023-03-26T00:23:09;8.06;85.18
70246;SHT30;57637;49.272;8.590;2023-03-26T00:25:36;7.97;85.40
70246;SHT30;57637;49.272;8.590;2023-03-26T00:28:05;7.94;85.63
70246;SHT30;57637;49.272;8.590;2023-03-26T00:30:32;7.85;85.88
70246;SHT30;57637;49.272;8.590;2023-03-26T00:32:59;7.80;86.03
70246;SHT30;57637;49.272;8.590;2023-03-26T00:35:25;7.80;86.06
70246;SHT30;57637;49.272;8.590;2023-03-26T00:37:50;7.77;86.09
70246;SHT30;57637;49.272;8.590;2023-03-26T00:40:17;7.74;86.20
70246;SHT30;57637;49.272;8.590;2023-03-26T00:42:43;7.71;86.27
70246;SHT30;57637;49.272;8.590;2023-03-26T00:45:08;7.70;86.31
70246;SHT30;57637;49.272;8.590;2023-03-26T00:47:34;7.64;86.43
70246;SHT30;57637;49.272;8.590;2023-03-26T00:50:00;7.63;86.50
70246;SHT30;57637;49.272;8.590;2023-03-26T00:52:27;7.64;86.44
70246;SHT30;57637;49.272;8.590;2023-03-26T00:54:54;7.63;86.44
70246;SHT30;57637;49.272;8.590;2023-03-26T00:57:19;7.63;86.50
70246;SHT30;57637;49.272;8.590;2023-03-26T00:59:54;7.62;86.60
70246;SHT30;57637;49.272;8.590;2023-03-26T01:02:20;7.57;86.56
70246;SHT30;57637;49.272;8.590;2023-03-26T01:04:56;7.59;86.63
70246;SHT30;57637;49.272;8.590;2023-03-26T01:07:26;7.57;86.62
70246;SHT30;57637;49.272;8.590;2023-03-26T01:09:54;7.54;86.49
70246;SHT30;57637;49.272;8.590;2023-03-26T01:12:22;7.57;86.54
70246;SHT30;57637;49.272;8.590;2023-03-26T01:14:50;7.57;86.48
70246;SHT30;57637;49.272;8.590;2023-03-26T01:17:18;7.59;86.47
70246;SHT30;57637;49.272;8.590;2023-03-26T01:22:45;7.57;86.46
70246;SHT30;57637;49.272;8.590;2023-03-26T01:25:16;7.59;86.36
70246;SHT30;57637;49.272;8.590;2023-03-26T01:27:49;7.60;86.31
70246;SHT30;57637;49.272;8.590;2023-03-26T01:33:01;7.62;86.27
70246;SHT30;57637;49.272;8.590;2023-03-26T01:35:40;7.62;86.26
70246;SHT30;57637;49.272;8.590;2023-03-26T01:40:48;7.62;86.02
70246;SHT30;57637;49.272;8.590;2023-03-26T01:46:14;7.64;85.80
70246;SHT30;57637;49.272;8.590;2023-03-26T01:48:45;7.67;85.72
70246;SHT30;57637;49.272;8.590;2023-03-26T01:51:11;7.64;85.57
70246;SHT30;57637;49.272;8.590;2023-03-26T01:53:40;7.64;85.57
70246;SHT30;57637;49.272;8.590;2023-03-26T02:01:22;7.66;85.61
70246;SHT30;57637;49.272;8.590;2023-03-26T02:03:57;7.64;85.52
70246;SHT30;57637;49.272;8.590;2023-03-26T02:06:40;7.69;85.44
70246;SHT30;57637;49.272;8.590;2023-03-26T02:09:15;7.67;85.53
70246;SHT30;57637;49.272;8.590;2023-03-26T02:11:46;7.69;85.47
70246;SHT30;57637;49.272;8.590;2023-03-26T02:14:13;7.70;85.32
70246;SHT30;57637;49.272;8.590;2023-03-26T02:16:39;7.70;85.41
70246;SHT30;57637;49.272;8.590;2023-03-26T02:19:04;7.71;85.46
70246;SHT30;57637;49.272;8.590;2023-03-26T02:21:39;7.71;85.40
70246;SHT30;57637;49.272;8.590;2023-03-26T02:24:06;7.73;85.45
70246;SHT30;57637;49.272;8.590;2023-03-26T02:26:33;7.71;85.40
70246;SHT30;57637;49.272;8.590;2023-03-26T02:29:00;7.77;85.41
70246;SHT30;57637;49.272;8.590;2023-03-26T02:31:26;7.71;85.35
70246;SHT30;57637;49.272;8.590;2023-03-26T02:33:52;7.73;85.53
70246;SHT30;57637;49.272;8.590;2023-03-26T02:36:19;7.67;85.60
70246;SHT30;57637;49.272;8.590;2023-03-26T02:38:48;7.67;85.65
70246;SHT30;57637;49.272;8.590;2023-03-26T02:41:14;7.64;85.70
70246;SHT30;57637;49.272;8.590;2023-03-26T02:43:40;7.66;85.69
70246;SHT30;57637;49.272;8.590;2023-03-26T02:46:05;7.64;85.73
70246;SHT30;57637;49.272;8.590;2023-03-26T02:48:30;7.63;85.74
70246;SHT30;57637;49.272;8.590;2023-03-26T02:50:58;7.66;86.47
70246;SHT30;57637;49.272;8.590;2023-03-26T02:53:24;7.60;86.32
70246;SHT30;57637;49.272;8.590;2023-03-26T02:55:54;7.60;86.18
70246;SHT30;57637;49.272;8.590;2023-03-26T02:58:20;7.60;86.00
70246;SHT30;57637;49.272;8.590;2023-03-26T03:00:46;7.59;86.04
70246;SHT30;57637;49.272;8.590;2023-03-26T03:03:14;7.60;86.22
70246;SHT30;57637;49.272;8.590;2023-03-26T03:05:44;7.62;86.41
70246;SHT30;57637;49.272;8.590;2023-03-26T03:08:09;7.62;86.70
70246;SHT30;57637;49.272;8.590;2023-03-26T03:10:34;7.60;86.79
70246;SHT30;57637;49.272;8.590;2023-03-26T03:13:01;7.60;86.78
70246;SHT30;57637;49.272;8.590;2023-03-26T03:15:29;7.57;86.80
70246;SHT30;57637;49.272;8.590;2023-03-26T03:17:55;7.52;86.76
70246;SHT30;57637;49.272;8.590;2023-03-26T03:20:20;7.53;86.92
70246;SHT30;57637;49.272;8.590;2023-03-26T03:22:46;7.62;86.80
70246;SHT30;57637;49.272;8.590;2023-03-26T03:25:11;7.57;86.90
70246;SHT30;57637;49.272;8.590;2023-03-26T03:27:41;7.57;86.92
70246;SHT30;57637;49.272;8.590;2023-03-26T03:30:08;7.53;87.08
70246;SHT30;57637;49.272;8.590;2023-03-26T03:32:36;7.56;87.13
70246;SHT30;57637;49.272;8.590;2023-03-26T03:35:02;7.57;86.92
70246;SHT30;57637;49.272;8.590;2023-03-26T03:37:27;7.56;86.93
70246;SHT30;57637;49.272;8.590;2023-03-26T03:39:53;7.53;87.00
70246;SHT30;57637;49.272;8.590;2023-03-26T03:42:18;7.49;87.28
70246;SHT30;57637;49.272;8.590;2023-03-26T03:44:43;7.39;87.72
70246;SHT30;57637;49.272;8.590;2023-03-26T03:47:09;7.33;88.01
70246;SHT30;57637;49.272;8.590;2023-03-26T03:49:37;7.29;88.11
70246;SHT30;57637;49.272;8.590;2023-03-26T03:52:03;7.29;88.21
70246;SHT30;57637;49.272;8.590;2023-03-26T03:54:29;7.36;88.12
70246;SHT30;57637;49.272;8.590;2023-03-26T03:56:55;7.43;87.96
70246;SHT30;57637;49.272;8.590;2023-03-26T03:59:20;7.43;87.84
70246;SHT30;57637;49.272;8.590;2023-03-26T04:01:45;7.43;87.82
70246;SHT30;57637;49.272;8.590;2023-03-26T04:04:12;7.44;87.77
70246;SHT30;57637;49.272;8.590;2023-03-26T04:06:37;7.46;87.77
70246;SHT30;57637;49.272;8.590;2023-03-26T04:09:03;7.47;87.59
70246;SHT30;57637;49.272;8.590;2023-03-26T04:11:28;7.46;87.55
70246;SHT30;57637;49.272;8.590;2023-03-26T04:13:54;7.43;87.80
70246;SHT30;57637;49.272;8.590;2023-03-26T04:16:19;7.46;87.87
70246;SHT30;57637;49.272;8.590;2023-03-26T04:18:45;7.43;87.78
70246;SHT30;57637;49.272;8.590;2023-03-26T04:21:11;7.44;87.81
70246;SHT30;57637;49.272;8.590;2023-03-26T04:23:39;7.44;87.72
70246;SHT30;57637;49.272;8.590;2023-03-26T04:26:06;7.42;87.71
70246;SHT30;57637;49.272;8.590;2023-03-26T04:28:57;7.49;87.73
70246;SHT30;57637;49.272;8.590;2023-03-26T04:31:26;7.46;87.44
70246;SHT30;57637;49.272;8.590;2023-03-26T04:33:55;7.43;87.63
70246;SHT30;57637;49.272;8.590;2023-03-26T04:36:30;7.37;87.80
70246;SHT30;57637;49.272;8.590;2023-03-26T04:38:57;7.37;87.82
70246;SHT30;57637;49.272;8.590;2023-03-26T04:41:27;7.30;87.90
70246;SHT30;57637;49.272;8.590;2023-03-26T04:43:53;7.29;88.01
70246;SHT30;57637;49.272;8.590;2023-03-26T04:46:19;7.24;88.17
70246;SHT30;57637;49.272;8.590;2023-03-26T04:48:50;7.24;88.30
70246;SHT30;57637;49.272;8.590;2023-03-26T04:51:18;7.26;88.33
70246;SHT30;57637;49.272;8.590;2023-03-26T04:54:06;7.29;88.35
70246;SHT30;57637;49.272;8.590;2023-03-26T04:59:17;7.27;88.25
70246;SHT30;57637;49.272;8.590;2023-03-26T05:01:49;7.32;88.29
70246;SHT30;57637;49.272;8.590;2023-03-26T05:04:15;7.33;88.27
70246;SHT30;57637;49.272;8.590;2023-03-26T05:06:40;7.37;88.32
70246;SHT30;57637;49.272;8.590;2023-03-26T05:09:06;7.36;88.17
70246;SHT30;57637;49.272;8.590;2023-03-26T05:11:34;7.34;88.05
70246;SHT30;57637;49.272;8.590;2023-03-26T05:14:00;7.33;88.03
70246;SHT30;57637;49.272;8.590;2023-03-26T05:16:26;7.39;88.09
70246;SHT30;57637;49.272;8.590;2023-03-26T05:18:52;7.40;88.12
70246;SHT30;57637;49.272;8.590;2023-03-26T05:21:18;7.40;87.95
70246;SHT30;57637;49.272;8.590;2023-03-26T05:23:43;7.43;88.07
70246;SHT30;57637;49.272;8.590;2023-03-26T05:26:09;7.46;87.97
70246;SHT30;57637;49.272;8.590;2023-03-26T05:28:35;7.40;88.02
70246;SHT30;57637;49.272;8.590;2023-03-26T05:31:01;7.49;88.10
70246;SHT30;57637;49.272;8.590;2023-03-26T05:33:26;7.52;88.01
70246;SHT30;57637;49.272;8.590;2023-03-26T05:36:25;7.53;87.89
70246;SHT30;57637;49.272;8.590;2023-03-26T05:38:44;7.57;87.97
70246;SHT30;57637;49.272;8.590;2023-03-26T05:41:13;7.56;87.92
70246;SHT30;57637;49.272;8.590;2023-03-26T05:43:40;7.47;87.87
70246;SHT30;57637;49.272;8.590;2023-03-26T05:46:06;7.49;88.04
70246;SHT30;57637;49.272;8.590;2023-03-26T05:48:32;7.49;87.91
70246;SHT30;57637;49.272;8.590;2023-03-26T05:50:58;7.49;87.86
70246;SHT30;57637;49.272;8.590;2023-03-26T05:53:24;7.47;87.79
70246;SHT30;57637;49.272;8.590;2023-03-26T05:55:51;7.46;87.76
70246;SHT30;57637;49.272;8.590;2023-03-26T05:58:24;7.47;87.72
70246;SHT30;57637;49.272;8.590;2023-03-26T06:00:57;7.44;87.84
70246;SHT30;57637;49.272;8.590;2023-03-26T06:03:36;7.46;87.71
70246;SHT30;57637;49.272;8.590;2023-03-26T06:06:06;7.46;87.71
70246;SHT30;57637;49.272;8.590;2023-03-26T06:08:34;7.52;87.54
70246;SHT30;57637;49.272;8.590;2023-03-26T06:11:00;7.54;87.40
70246;SHT30;57637;49.272;8.590;2023-03-26T06:13:27;7.62;87.33
70246;SHT30;57637;49.272;8.590;2023-03-26T06:15:53;7.69;87.36
70246;SHT30;57637;49.272;8.590;2023-03-26T06:18:18;7.67;87.43
70246;SHT30;57637;49.272;8.590;2023-03-26T06:20:45;7.73;87.26
70246;SHT30;57637;49.272;8.590;2023-03-26T06:23:10;7.78;87.24
70246;SHT30;57637;49.272;8.590;2023-03-26T06:25:36;7.74;87.30
70246;SHT30;57637;49.272;8.590;2023-03-26T06:28:02;7.77;87.59
70246;SHT30;57637;49.272;8.590;2023-03-26T06:30:27;7.75;87.40
70246;SHT30;57637;49.272;8.590;2023-03-26T06:32:53;7.75;87.41
70246;SHT30;57637;49.272;8.590;2023-03-26T06:35:18;7.81;87.63
70246;SHT30;57637;49.272;8.590;2023-03-26T06:37:44;7.77;87.59
70246;SHT30;57637;49.272;8.590;2023-03-26T06:40:10;7.80;87.63
70246;SHT30;57637;49.272;8.590;2023-03-26T06:42:36;7.78;87.65
70246;SHT30;57637;49.272;8.590;2023-03-26T06:45:01;7.85;87.77
70246;SHT30;57637;49.272;8.590;2023-03-26T06:47:26;7.91;87.46
70246;SHT30;57637;49.272;8.590;2023-03-26T06:49:52;7.90;87.51
70246;SHT30;57637;49.272;8.590;2023-03-26T06:52:17;7.95;87.30
70246;SHT30;57637;49.272;8.590;2023-03-26T06:54:45;7.97;87.16
70246;SHT30;57637;49.272;8.590;2023-03-26T06:57:11;7.97;87.00
70246;SHT30;57637;49.272;8.590;2023-03-26T06:59:36;8.02;87.03
70246;SHT30;57637;49.272;8.590;2023-03-26T07:02:02;8.11;87.12
70246;SHT30;57637;49.272;8.590;2023-03-26T07:04:28;8.22;87.12
70246;SHT30;57637;49.272;8.590;2023-03-26T07:06:53;8.14;87.02
70246;SHT30;57637;49.272;8.590;2023-03-26T07:09:18;8.14;87.25
70246;SHT30;57637;49.272;8.590;2023-03-26T07:11:44;8.11;87.34
70246;SHT30;57637;49.272;8.590;2023-03-26T07:14:09;8.24;87.50
70246;SHT30;57637;49.272;8.590;2023-03-26T07:16:35;8.18;87.50
70246;SHT30;57637;49.272;8.590;2023-03-26T07:19:00;8.22;87.61
70246;SHT30;57637;49.272;8.590;2023-03-26T07:21:26;8.29;87.64
70246;SHT30;57637;49.272;8.590;2023-03-26T07:23:51;8.48;87.71
70246;SHT30;57637;49.272;8.590;2023-03-26T07:27:00;8.36;87.49
70246;SHT30;57637;49.272;8.590;2023-03-26T07:29:34;8.42;87.60
70246;SHT30;57637;49.272;8.590;2023-03-26T07:32:10;8.22;87.44
70246;SHT30;57637;49.272;8.590;2023-03-26T07:35:01;8.36;88.07
70246;SHT30;57637;49.272;8.590;2023-03-26T07:40:16;8.49;87.60
70246;SHT30;57637;49.272;8.590;2023-03-26T07:42:59;8.55;87.73
70246;SHT30;57637;49.272;8.590;2023-03-26T07:48:00;8.62;87.44
70246;SHT30;57637;49.272;8.590;2023-03-26T07:50:26;8.63;87.30
70246;SHT30;57637;49.272;8.590;2023-03-26T07:52:51;8.66;87.23
70246;SHT30;57637;49.272;8.590;2023-03-26T07:55:17;8.67;87.25
70246;SHT30;57637;49.272;8.590;2023-03-26T07:57:55;8.73;87.37
70246;SHT30;57637;49.272;8.590;2023-03-26T08:00:54;8.72;87.57
70246;SHT30;57637;49.272;8.590;2023-03-26T08:06:17;8.66;87.06
70246;SHT30;57637;49.272;8.590;2023-03-26T08:08:59;8.70;87.07
70246;SHT30;57637;49.272;8.590;2023-03-26T08:14:18;8.66;87.33
70246;SHT30;57637;49.272;8.590;2023-03-26T08:17:04;8.70;87.52
70246;SHT30;57637;49.272;8.590;2023-03-26T08:22:30;8.76;87.57
70246;SHT30;57637;49.272;8.590;2023-03-26T08:30:32;8.94;87.67
70246;SHT30;57637;49.272;8.590;2023-03-26T08:32:59;9.06;87.32
70246;SHT30;57637;49.272;8.590;2023-03-26T08:35:31;9.04;86.85
70246;SHT30;57637;49.272;8.590;2023-03-26T08:37:57;9.03;86.98
70246;SHT30;57637;49.272;8.590;2023-03-26T08:46:10;8.77;87.68
70246;SHT30;57637;49.272;8.590;2023-03-26T08:48:53;8.83;87.71
70246;SHT30;57637;49.272;8.590;2023-03-26T08:51:40;8.89;87.88
70246;SHT30;57637;49.272;8.590;2023-03-26T08:57:02;8.87;88.10
70246;SHT30;57637;49.272;8.590;2023-03-26T09:05:25;9.35;87.63
70246;SHT30;57637;49.272;8.590;2023-03-26T09:17:13;9.51;86.53
70246;SHT30;57637;49.272;8.590;2023-03-26T09:41:41;10.19;85.87
70246;SHT30;57637;49.272;8.590;2023-03-26T09:57:06;10.34;85.21
70246;SHT30;57637;49.272;8.590;2023-03-26T10:00:00;10.91;84.65
70246;SHT30;57637;49.272;8.590;2023-03-26T10:26:47;13.01;80.15
70246;SHT30;57637;49.272;8.590;2023-03-26T10:35:01;14.65;75.60
70246;SHT30;57637;49.272;8.590;2023-03-26T10:48:22;14.18;75.81
70246;SHT30;57637;49.272;8.590;2023-03-26T10:56:49;12.85;78.88
70246;SHT30;57637;49.272;8.590;2023-03-26T10:59:16;12.71;80.47
70246;SHT30;57637;49.272;8.590;2023-03-26T11:01:49;12.71;81.20
70246;SHT30;57637;49.272;8.590;2023-03-26T11:04:59;12.60;81.14
70246;SHT30;57637;49.272;8.590;2023-03-26T11:07:43;12.74;81.37
70246;SHT30;57637;49.272;8.590;2023-03-26T11:10:24;13.22;80.60
70246;SHT30;57637;49.272;8.590;2023-03-26T11:15:37;13.26;79.75
70246;SHT30;57637;49.272;8.590;2023-03-26T11:23:48;13.30;78.12
70246;SHT30;57637;49.272;8.590;2023-03-26T11:31:53;13.11;79.11
70246;SHT30;57637;49.272;8.590;2023-03-26T11:34:27;13.03;76.49
70246;SHT30;57637;49.272;8.590;2023-03-26T11:36:57;13.02;72.94
70246;SHT30;57637;49.272;8.590;2023-03-26T11:39:28;13.22;70.58
70246;SHT30;57637;49.272;8.590;2023-03-26T11:42:05;13.32;69.11
70246;SHT30;57637;49.272;8.590;2023-03-26T11:44:45;13.40;67.15
70246;SHT30;57637;49.272;8.590;2023-03-26T11:47:17;13.47;67.06
70246;SHT30;57637;49.272;8.590;2023-03-26T11:49:48;13.33;66.16
70246;SHT30;57637;49.272;8.590;2023-03-26T11:52:17;13.19;62.02
70246;SHT30;57637;49.272;8.590;2023-03-26T11:54:42;13.20;62.30
70246;SHT30;57637;49.272;8.590;2023-03-26T11:57:13;13.32;62.19
70246;SHT30;57637;49.272;8.590;2023-03-26T11:59:53;13.62;62.74
70246;SHT30;57637;49.272;8.590;2023-03-26T12:02:26;13.73;61.81
70246;SHT30;57637;49.272;8.590;2023-03-26T12:05:02;14.05;61.30
70246;SHT30;57637;49.272;8.590;2023-03-26T12:07:31;13.97;60.69
70246;SHT30;57637;49.272;8.590;2023-03-26T12:10:02;14.25;60.54
70246;SHT30;57637;49.272;8.590;2023-03-26T12:12:35;14.39;60.71
70246;SHT30;57637;49.272;8.590;2023-03-26T12:15:04;14.35;59.53
70246;SHT30;57637;49.272;8.590;2023-03-26T12:17:37;14.26;57.28
70246;SHT30;57637;49.272;8.590;2023-03-26T12:22:54;14.01;58.67
70246;SHT30;57637;49.272;8.590;2023-03-26T12:25:27;13.77;57.58
70246;SHT30;57637;49.272;8.590;2023-03-26T12:31:00;14.29;53.92
70246;SHT30;57637;49.272;8.590;2023-03-26T12:33:28;14.24;55.20
70246;SHT30;57637;49.272;8.590;2023-03-26T12:35:58;14.39;55.65
70246;SHT30;57637;49.272;8.590;2023-03-26T12:38:40;14.61;55.44
70246;SHT30;57637;49.272;8.590;2023-03-26T12:41:07;14.73;54.41
70246;SHT30;57637;49.272;8.590;2023-03-26T12:49:01;14.32;55.30
70246;SHT30;57637;49.272;8.590;2023-03-26T13:08:10;14.48;53.55
70246;SHT30;57637;49.272;8.590;2023-03-26T13:10:49;14.58;53.86
70246;SHT30;57637;49.272;8.590;2023-03-26T13:18:53;15.09;53.18
70246;SHT30;57637;49.272;8.590;2023-03-26T13:21:29;14.95;53.31
70246;SHT30;57637;49.272;8.590;2023-03-26T13:30:22;15.64;52.31
70246;SHT30;57637;49.272;8.590;2023-03-26T13:35:37;15.74;53.07
70246;SHT30;57637;49.272;8.590;2023-03-26T13:41:03;16.05;52.62
70246;SHT30;57637;49.272;8.590;2023-03-26T13:46:35;15.70;52.45
70246;SHT30;57637;49.272;8.590;2023-03-26T13:49:08;15.48;51.84
70246;SHT30;57637;49.272;8.590;2023-03-26T13:51:51;15.19;52.37
70246;SHT30;57637;49.272;8.590;2023-03-26T13:56:58;14.54;53.11
70246;SHT30;57637;49.272;8.590;2023-03-26T13:59:29;14.42;54.23
70246;SHT30;57637;49.272;8.590;2023-03-26T14:02:09;14.20;54.82
70246;SHT30;57637;49.272;8.590;2023-03-26T14:04:41;14.14;55.77
70246;SHT30;57637;49.272;8.590;2023-03-26T14:07:15;13.95;56.15
70246;SHT30;57637;49.272;8.590;2023-03-26T14:15:04;13.95;57.57
70246;SHT30;57637;49.272;8.590;2023-03-26T14:17:38;13.81;57.47
70246;SHT30;57637;49.272;8.590;2023-03-26T14:25:36;13.40;63.23
70246;SHT30;57637;49.272;8.590;2023-03-26T14:33:24;12.27;68.92
70246;SHT30;57637;49.272;8.590;2023-03-26T14:41:50;11.76;70.62
70246;SHT30;57637;49.272;8.590;2023-03-26T14:46:55;11.36;71.71
70246;SHT30;57637;49.272;8.590;2023-03-26T14:55:12;11.19;75.42
70246;SHT30;57637;49.272;8.590;2023-03-26T14:58:02;11.18;76.20
70246;SHT30;57637;49.272;8.590;2023-03-26T15:03:46;10.95;76.11
70246;SHT30;57637;49.272;8.590;2023-03-26T15:07:00;10.84;76.52
70246;SHT30;57637;49.272;8.590;2023-03-26T15:09:48;10.80;76.91
70246;SHT30;57637;49.272;8.590;2023-03-26T15:20:54;10.56;76.44
70246;SHT30;57637;49.272;8.590;2023-03-26T15:23:56;10.50;77.14
70246;SHT30;57637;49.272;8.590;2023-03-26T15:31:55;10.53;77.44
70246;SHT30;57637;49.272;8.590;2023-03-26T15:37:43;10.47;77.70
70246;SHT30;57637;49.272;8.590;2023-03-26T15:43:11;10.42;78.29
70246;SHT30;57637;49.272;8.590;2023-03-26T15:45:39;10.30;78.34
70246;SHT30;57637;49.272;8.590;2023-03-26T15:55:54;9.71;80.09
70246;SHT30;57637;49.272;8.590;2023-03-26T15:59:12;9.69;80.14
70246;SHT30;57637;49.272;8.590;2023-03-26T16:01:43;9.57;80.15
70246;SHT30;57637;49.272;8.590;2023-03-26T16:12:34;9.38;81.01
70246;SHT30;57637;49.272;8.590;2023-03-26T16:15:23;9.40;81.22
70246;SHT30;57637;49.272;8.590;2023-03-26T16:23:20;9.35;81.20
70246;SHT30;57637;49.272;8.590;2023-03-26T16:28:34;9.34;81.43
70246;SHT30;57637;49.272;8.590;2023-03-26T16:41:23;9.23;81.24
70246;SHT30;57637;49.272;8.590;2023-03-26T16:52:22;9.07;80.87
70246;SHT30;57637;49.272;8.590;2023-03-26T16:57:56;8.99;81.55
70246;SHT30;57637;49.272;8.590;2023-03-26T17:11:21;8.89;82.77
70246;SHT30;57637;49.272;8.590;2023-03-26T17:19:32;8.87;82.78
70246;SHT30;57637;49.272;8.590;2023-03-26T17:24:58;8.87;82.97
70246;SHT30;57637;49.272;8.590;2023-03-26T17:27:50;8.81;83.03
70246;SHT30;57637;49.272;8.590;2023-03-26T17:41:13;8.77;83.41
70246;SHT30;57637;49.272;8.590;2023-03-26T17:43:58;8.69;83.73
70246;SHT30;57637;49.272;8.590;2023-03-26T17:51:53;8.62;83.94
70246;SHT30;57637;49.272;8.590;2023-03-26T17:54:27;8.57;83.98
70246;SHT30;57637;49.272;8.590;2023-03-26T17:56:59;8.53;84.14
70246;SHT30;57637;49.272;8.590;2023-03-26T17:59:38;8.50;84.38
70246;SHT30;57637;49.272;8.590;2023-03-26T18:02:11;8.46;84.37
70246;SHT30;57637;49.272;8.590;2023-03-26T18:04:40;8.46;84.46
70246;SHT30;57637;49.272;8.590;2023-03-26T18:10:22;8.44;84.73
70246;SHT30;57637;49.272;8.590;2023-03-26T18:21:25;8.42;84.77
70246;SHT30;57637;49.272;8.590;2023-03-26T18:23:56;8.44;84.74
70246;SHT30;57637;49.272;8.590;2023-03-26T18:26:29;8.42;84.70
70246;SHT30;57637;49.272;8.590;2023-03-26T18:31:57;8.42;84.68
70246;SHT30;57637;49.272;8.590;2023-03-26T18:34:30;8.39;84.82
70246;SHT30;57637;49.272;8.590;2023-03-26T18:42:23;8.36;84.39
70246;SHT30;57637;49.272;8.590;2023-03-26T18:44:51;8.32;84.32
70246;SHT30;57637;49.272;8.590;2023-03-26T18:47:18;8.29;84.23
70246;SHT30;57637;49.272;8.590;2023-03-26T18:49:46;8.29;84.12
70246;SHT30;57637;49.272;8.590;2023-03-26T18:52:14;8.28;83.94
70246;SHT30;57637;49.272;8.590;2023-03-26T18:54:42;8.25;83.80
70246;SHT30;57637;49.272;8.590;2023-03-26T18:57:18;8.26;83.71
70246;SHT30;57637;49.272;8.590;2023-03-26T18:59:49;8.22;83.62
70246;SHT30;57637;49.272;8.590;2023-03-26T19:02:16;8.21;83.52
70246;SHT30;57637;49.272;8.590;2023-03-26T19:04:43;8.15;83.55
70246;SHT30;57637;49.272;8.590;2023-03-26T19:07:11;8.14;83.63
70246;SHT30;57637;49.272;8.590;2023-03-26T19:09:39;8.09;83.49
70246;SHT30;57637;49.272;8.590;2023-03-26T19:12:07;8.06;83.46
70246;SHT30;57637;49.272;8.590;2023-03-26T19:14:50;8.05;83.41
70246;SHT30;57637;49.272;8.590;2023-03-26T19:17:18;8.01;83.36
70246;SHT30;57637;49.272;8.590;2023-03-26T19:19:45;8.02;83.42
70246;SHT30;57637;49.272;8.590;2023-03-26T19:22:10;7.97;83.50
70246;SHT30;57637;49.272;8.590;2023-03-26T19:24:36;7.97;83.43
70246;SHT30;57637;49.272;8.590;2023-03-26T19:27:02;7.97;83.45
70246;SHT30;57637;49.272;8.590;2023-03-26T19:29:30;7.94;83.49
70246;SHT30;57637;49.272;8.590;2023-03-26T19:32:39;7.88;83.71
70246;SHT30;57637;49.272;8.590;2023-03-26T19:34:53;7.85;83.90
70246;SHT30;57637;49.272;8.590;2023-03-26T19:37:22;7.87;83.86
70246;SHT30;57637;49.272;8.590;2023-03-26T19:39:53;7.84;84.03
70246;SHT30;57637;49.272;8.590;2023-03-26T19:42:26;7.81;84.00
70246;SHT30;57637;49.272;8.590;2023-03-26T19:44:56;7.84;83.96
70246;SHT30;57637;49.272;8.590;2023-03-26T19:47:24;7.84;83.87
70246;SHT30;57637;49.272;8.590;2023-03-26T19:52:23;7.84;84.06
70246;SHT30;57637;49.272;8.590;2023-03-26T19:57:31;7.78;84.65
70246;SHT30;57637;49.272;8.590;2023-03-26T20:00:00;7.74;85.25
70246;SHT30;57637;49.272;8.590;2023-03-26T20:02:26;7.75;85.55
70246;SHT30;57637;49.272;8.590;2023-03-26T20:04:52;7.75;85.96
70246;SHT30;57637;49.272;8.590;2023-03-26T20:07:21;7.70;86.31
70246;SHT30;57637;49.272;8.590;2023-03-26T20:09:50;7.70;86.57
70246;SHT30;57637;49.272;8.590;2023-03-26T20:12:17;7.67;86.89
70246;SHT30;57637;49.272;8.590;2023-03-26T20:14:42;7.59;87.12
70246;SHT30;57637;49.272;8.590;2023-03-26T20:17:12;7.57;87.50
70246;SHT30;57637;49.272;8.590;2023-03-26T20:19:40;7.56;87.64
70246;SHT30;57637;49.272;8.590;2023-03-26T20:22:10;7.54;87.62
70246;SHT30;57637;49.272;8.590;2023-03-26T20:24:45;7.50;87.71
70246;SHT30;57637;49.272;8.590;2023-03-26T20:27:11;7.46;87.88
70246;SHT30;57637;49.272;8.590;2023-03-26T20:29:40;7.43;88.05
70246;SHT30;57637;49.272;8.590;2023-03-26T20:32:39;7.42;88.20
70246;SHT30;57637;49.272;8.590;2023-03-26T20:34:58;7.40;88.19
70246;SHT30;57637;49.272;8.590;2023-03-26T20:37:23;7.40;88.23
70246;SHT30;57637;49.272;8.590;2023-03-26T20:39:49;7.39;88.29
70246;SHT30;57637;49.272;8.590;2023-03-26T20:42:14;7.34;88.29
70246;SHT30;57637;49.272;8.590;2023-03-26T20:44:40;7.40;88.37
70246;SHT30;57637;49.272;8.590;2023-03-26T20:47:07;7.37;88.44
70246;SHT30;57637;49.272;8.590;2023-03-26T20:49:34;7.36;88.48
70246;SHT30;57637;49.272;8.590;2023-03-26T20:51:59;7.36;88.58
70246;SHT30;57637;49.272;8.590;2023-03-26T20:54:25;7.36;88.64
70246;SHT30;57637;49.272;8.590;2023-03-26T20:56:51;7.34;88.70
70246;SHT30;57637;49.272;8.590;2023-03-26T20:59:19;7.36;88.81
70246;SHT30;57637;49.272;8.590;2023-03-26T21:01:46;7.30;88.90
70246;SHT30;57637;49.272;8.590;2023-03-26T21:04:13;7.30;89.06
70246;SHT30;57637;49.272;8.590;2023-03-26T21:06:40;7.27;89.12
70246;SHT30;57637;49.272;8.590;2023-03-26T21:09:08;7.26;89.25
70246;SHT30;57637;49.272;8.590;2023-03-26T21:16:54;7.27;89.35
70246;SHT30;57637;49.272;8.590;2023-03-26T21:19:20;7.26;89.38
70246;SHT30;57637;49.272;8.590;2023-03-26T21:29:33;7.29;89.60
70246;SHT30;57637;49.272;8.590;2023-03-26T21:31:59;7.29;89.63
70246;SHT30;57637;49.272;8.590;2023-03-26T21:34:25;7.30;89.75
70246;SHT30;57637;49.272;8.590;2023-03-26T21:36:51;7.32;89.78
70246;SHT30;57637;49.272;8.590;2023-03-26T21:39:17;7.32;89.72
70246;SHT30;57637;49.272;8.590;2023-03-26T21:41:46;7.32;89.77
70246;SHT30;57637;49.272;8.590;2023-03-26T21:44:13;7.30;89.89
70246;SHT30;57637;49.272;8.590;2023-03-26T21:46:41;7.27;89.95
70246;SHT30;57637;49.272;8.590;2023-03-26T21:49:07;7.29;89.97
70246;SHT30;57637;49.272;8.590;2023-03-26T21:51:33;7.30;90.01
70246;SHT30;57637;49.272;8.590;2023-03-26T21:53:59;7.30;90.02
70246;SHT30;57637;49.272;8.590;2023-03-26T22:01:44;7.29;90.11
70246;SHT30;57637;49.272;8.590;2023-03-26T22:04:24;7.27;90.11
70246;SHT30;57637;49.272;8.590;2023-03-26T22:07:03;7.29;90.21
70246;SHT30;57637;49.272;8.590;2023-03-26T22:09:35;7.29;90.38
70246;SHT30;57637;49.272;8.590;2023-03-26T22:12:02;7.32;90.41
70246;SHT30;57637;49.272;8.590;2023-03-26T22:14:27;7.34;90.56
70246;SHT30;57637;49.272;8.590;2023-03-26T22:16:53;7.33;90.61
70246;SHT30;57637;49.272;8.590;2023-03-26T22:19:18;7.33;90.70
70246;SHT30;57637;49.272;8.590;2023-03-26T22:21:43;7.33;90.76
70246;SHT30;57637;49.272;8.590;2023-03-26T22:24:09;7.24;90.65
70246;SHT30;57637;49.272;8.590;2023-03-26T22:26:35;7.33;90.79
70246;SHT30;57637;49.272;8.590;2023-03-26T22:29:01;7.32;90.76